Time;durP1;ratioP1;P1;durP2;ratioP2;P2;SDS_P1;SDS_P2;PMS_P1;PMS_P2;Temp;Humidity;BMP_temperature;BMP_pressure;BME280_temperature;BME280_humidity;BME280_pressure;Samples;Min_cycle;Max_cycle;Signal;HPM_P1;HPM_P2
2024/04/20 00:01:00;;;;;;;;;;;7.20;84.90;;;;;;5462680;26;19939;-65
2024/04/20 00:03:29;;;;;;;;;;;7.20;85.00;;;;;;5464602;26;20267;-65
2024/04/20 00:05:58;;;;;;;;;;;7.20;85.00;;;;;;5462357;26;20348;-65
2024/04/20 00:08:26;;;;;;;;;;;7.30;85.00;;;;;;5462867;26;19999;-66
2024/04/20 00:10:57;;;;;;;;;;;7.30;85.00;;;;;;5462667;26;20000;-65
2024/04/20 00:13:26;;;;;;;;;;;7.30;85.10;;;;;;5457124;26;19940;-65
2024/04/20 00:15:55;;;;;;;;;;;7.30;85.20;;;;;;5461913;26;19940;-66
2024/04/20 00:18:23;;;;;;;;;;;7.30;85.20;;;;;;5461952;26;20038;-64
2024/04/20 00:20:52;;;;;;;;;;;7.40;84.90;;;;;;5462808;26;19993;-65
2024/04/20 00:23:21;;;;;;;;;;;7.40;85.10;;;;;;5457306;26;19998;-65
2024/04/20 00:25:50;;;;;;;;;;;7.40;85.10;;;;;;5463830;26;20059;-65
2024/04/20 00:28:21;;;;;;;;;;;7.30;85.30;;;;;;5463749;26;20001;-66
2024/04/20 00:30:59;;;;;;;;;;;7.30;85.40;;;;;;5460718;26;19928;-66
2024/04/20 00:33:27;;;;;;;;;;;7.30;85.30;;;;;;5464146;26;19987;-59
2024/04/20 00:39:31;;;;;;;;;;;7.30;85.10;;;;;;5450517;26;19935;-59
2024/04/20 00:42:00;;;;;;;;;;;7.30;85.10;;;;;;5459430;26;19996;-60
2024/04/20 00:44:32;;;;;;;;;;;7.30;85.00;;;;;;5462150;26;19928;-59
2024/04/20 00:47:03;;;;;;;;;;;7.20;85.00;;;;;;5460586;26;19932;-60
2024/04/20 00:49:32;;;;;;;;;;;7.20;84.90;;;;;;5458003;26;19935;-59
2024/04/20 00:52:02;;;;;;;;;;;7.20;84.90;;;;;;5462324;26;19928;-60
2024/04/20 00:54:32;;;;;;;;;;;7.20;84.90;;;;;;5459720;26;20022;-60
2024/04/20 00:57:01;;;;;;;;;;;7.20;84.80;;;;;;5460554;26;20369;-60
2024/04/20 00:59:33;;;;;;;;;;;7.20;84.80;;;;;;5460011;26;19935;-60
2024/04/20 01:02:01;;;;;;;;;;;7.20;84.80;;;;;;5463028;26;20538;-60
2024/04/20 01:04:30;;;;;;;;;;;7.20;84.70;;;;;;5459073;26;20024;-60
2024/04/20 01:06:59;;;;;;;;;;;7.20;84.80;;;;;;5462280;26;19928;-60
2024/04/20 01:09:28;;;;;;;;;;;7.20;84.70;;;;;;5461260;26;20312;-59
2024/04/20 01:11:57;;;;;;;;;;;7.20;84.70;;;;;;5457657;26;19929;-59
2024/04/20 01:14:25;;;;;;;;;;;7.20;84.90;;;;;;5459060;26;19935;-60
2024/04/20 01:16:57;;;;;;;;;;;7.20;84.80;;;;;;5457466;26;20359;-60
2024/04/20 01:19:27;;;;;;;;;;;7.20;84.70;;;;;;5459334;26;19929;-60
2024/04/20 01:21:56;;;;;;;;;;;7.20;84.60;;;;;;5463970;26;19930;-60
2024/04/20 01:24:25;;;;;;;;;;;7.20;84.50;;;;;;5454342;26;19929;-61
2024/04/20 01:26:57;;;;;;;;;;;7.20;84.50;;;;;;5462617;26;20260;-61
2024/04/20 01:29:26;;;;;;;;;;;7.20;84.40;;;;;;5465099;26;19937;-61
2024/04/20 01:31:54;;;;;;;;;;;7.20;84.40;;;;;;5463976;26;19928;-61
2024/04/20 01:34:23;;;;;;;;;;;7.20;84.30;;;;;;5462959;26;19937;-60
2024/04/20 01:36:52;;;;;;;;;;;7.20;84.30;;;;;;5463581;26;19944;-59
2024/04/20 01:43:06;;;;;;;;;;;7.20;84.20;;;;;;5417722;26;19997;-62
2024/04/20 01:45:35;;;;;;;;;;;7.20;84.10;;;;;;5463725;26;19935;-62
2024/04/20 01:48:04;;;;;;;;;;;7.10;84.10;;;;;;5461330;26;20501;-62
2024/04/20 01:50:33;;;;;;;;;;;7.10;84.10;;;;;;5463301;26;20429;-62
2024/04/20 01:53:01;;;;;;;;;;;7.10;84.10;;;;;;5465116;26;19943;-62
2024/04/20 01:55:30;;;;;;;;;;;7.10;84.00;;;;;;5464986;26;19929;-63
2024/04/20 01:57:59;;;;;;;;;;;7.10;84.20;;;;;;5455895;26;19929;-61
2024/04/20 02:00:30;;;;;;;;;;;7.10;84.20;;;;;;5458254;26;20371;-61
2024/04/20 02:02:58;;;;;;;;;;;7.20;84.20;;;;;;5450248;26;19997;-63
2024/04/20 02:05:27;;;;;;;;;;;7.20;84.20;;;;;;5451994;26;20018;-63
2024/04/20 02:07:56;;;;;;;;;;;7.10;84.30;;;;;;5450057;26;20452;-62
2024/04/20 02:10:25;;;;;;;;;;;7.20;84.20;;;;;;5451380;26;19944;-62
2024/04/20 02:12:53;;;;;;;;;;;7.20;84.30;;;;;;5450754;26;19928;-62
2024/04/20 02:15:22;;;;;;;;;;;7.20;84.30;;;;;;5435073;26;19980;-63
2024/04/20 02:17:54;;;;;;;;;;;7.20;84.30;;;;;;5456648;26;19936;-62
2024/04/20 02:20:22;;;;;;;;;;;7.20;84.20;;;;;;5457075;26;19928;-63
2024/04/20 02:22:51;;;;;;;;;;;7.20;84.30;;;;;;5455699;26;19964;-62
2024/04/20 02:25:20;;;;;;;;;;;7.20;84.20;;;;;;5452056;26;20000;-62
2024/04/20 02:27:48;;;;;;;;;;;7.10;84.20;;;;;;5451616;26;19939;-63
2024/04/20 02:30:17;;;;;;;;;;;7.10;84.20;;;;;;5455808;26;19940;-63
2024/04/20 02:32:46;;;;;;;;;;;7.10;84.30;;;;;;5450226;26;19928;-61
2024/04/20 02:35:18;;;;;;;;;;;7.10;84.30;;;;;;5453425;26;20260;-63
2024/04/20 02:37:47;;;;;;;;;;;7.00;84.10;;;;;;5451813;26;20360;-61
2024/04/20 02:43:51;;;;;;;;;;;7.00;84.30;;;;;;5433801;26;20323;-63
2024/04/20 02:46:20;;;;;;;;;;;7.10;84.10;;;;;;5453439;26;19929;-63
2024/04/20 02:48:49;;;;;;;;;;;7.00;84.10;;;;;;5458832;26;19928;-62
2024/04/20 02:51:20;;;;;;;;;;;7.00;84.10;;;;;;5454841;26;20415;-72
2024/04/20 02:53:49;;;;;;;;;;;7.00;83.90;;;;;;5458952;26;20554;-73
2024/04/20 02:56:17;;;;;;;;;;;7.00;83.90;;;;;;5458734;26;19967;-73
2024/04/20 02:58:46;;;;;;;;;;;7.00;83.80;;;;;;5454688;26;19928;-73
2024/04/20 03:01:15;;;;;;;;;;;7.00;83.70;;;;;;5458054;26;20390;-73
2024/04/20 03:03:43;;;;;;;;;;;7.00;83.70;;;;;;5456368;26;19961;-73
2024/04/20 03:06:12;;;;;;;;;;;7.00;83.60;;;;;;5458577;26;19935;-72
2024/04/20 03:08:43;;;;;;;;;;;6.90;83.50;;;;;;5456970;26;19927;-72
2024/04/20 03:11:12;;;;;;;;;;;6.90;83.60;;;;;;5457775;26;19964;-72
2024/04/20 03:13:41;;;;;;;;;;;6.90;83.60;;;;;;5450416;26;19943;-72
2024/04/20 03:16:09;;;;;;;;;;;6.90;83.60;;;;;;5450596;26;19936;-73
2024/04/20 03:18:38;;;;;;;;;;;6.90;83.60;;;;;;5459005;26;19928;-72
2024/04/20 03:21:13;;;;;;;;;;;6.90;83.50;;;;;;5463849;26;19974;-73
2024/04/20 03:23:44;;;;;;;;;;;6.90;83.50;;;;;;5461184;26;19932;-73
2024/04/20 03:26:12;;;;;;;;;;;6.90;83.20;;;;;;5456066;26;21003;-73
2024/04/20 03:28:41;;;;;;;;;;;6.90;83.10;;;;;;5457134;26;19951;-72
2024/04/20 03:31:10;;;;;;;;;;;6.90;83.00;;;;;;5462364;26;19929;-73
2024/04/20 03:37:19;;;;;;;;;;;6.90;83.10;;;;;;5450063;26;19935;-72
2024/04/20 03:39:50;;;;;;;;;;;6.90;83.20;;;;;;5457738;26;19944;-71
2024/04/20 03:42:19;;;;;;;;;;;6.90;83.20;;;;;;5441308;26;19936;-72
2024/04/20 03:44:48;;;;;;;;;;;6.90;83.00;;;;;;5461491;26;19928;-69
2024/04/20 03:47:17;;;;;;;;;;;6.90;83.00;;;;;;5457107;26;19940;-72
2024/04/20 03:49:45;;;;;;;;;;;6.90;82.90;;;;;;5457272;26;19935;-72
2024/04/20 03:52:14;;;;;;;;;;;6.90;82.90;;;;;;5465624;26;19928;-73
2024/04/20 03:54:42;;;;;;;;;;;6.90;82.90;;;;;;5448098;26;19937;-72
2024/04/20 03:57:14;;;;;;;;;;;6.90;82.90;;;;;;5462350;26;20666;-73
2024/04/20 04:00:05;;;;;;;;;;;6.90;82.90;;;;;;5460418;26;19927;-72
2024/04/20 04:02:34;;;;;;;;;;;6.90;82.60;;;;;;5448302;26;19936;-64
2024/04/20 04:05:03;;;;;;;;;;;6.90;82.60;;;;;;5466048;26;20442;-64
2024/04/20 04:07:32;;;;;;;;;;;6.90;82.60;;;;;;5454435;26;19936;-63
2024/04/20 04:10:00;;;;;;;;;;;6.80;82.50;;;;;;5454477;26;19944;-63
2024/04/20 04:12:31;;;;;;;;;;;6.80;82.50;;;;;;5457983;26;20332;-65
2024/04/20 04:15:00;;;;;;;;;;;6.80;82.50;;;;;;5464975;26;20000;-64
2024/04/20 04:17:29;;;;;;;;;;;6.80;82.50;;;;;;5454502;26;20011;-64
2024/04/20 04:19:57;;;;;;;;;;;6.80;82.40;;;;;;5460743;26;19928;-64
2024/04/20 04:22:27;;;;;;;;;;;6.80;82.50;;;;;;5460355;26;19997;-64
2024/04/20 04:24:56;;;;;;;;;;;6.80;82.50;;;;;;5449589;26;19933;-63
2024/04/20 04:27:25;;;;;;;;;;;6.80;82.40;;;;;;5458352;26;20522;-64
2024/04/20 04:29:57;;;;;;;;;;;6.80;82.30;;;;;;5460791;26;19928;-63
2024/04/20 04:36:02;;;;;;;;;;;6.80;82.20;;;;;;5460801;26;20267;-64
2024/04/20 04:38:31;;;;;;;;;;;6.70;82.20;;;;;;5456900;26;19939;-64
2024/04/20 04:40:59;;;;;;;;;;;6.70;82.00;;;;;;5458143;26;19997;-62
2024/04/20 04:43:28;;;;;;;;;;;6.70;81.90;;;;;;5459718;26;19996;-64
2024/04/20 04:46:00;;;;;;;;;;;6.70;81.90;;;;;;5452444;26;19935;-64
2024/04/20 04:48:28;;;;;;;;;;;6.70;81.90;;;;;;5463162;26;19928;-63
2024/04/20 04:50:57;;;;;;;;;;;6.70;82.00;;;;;;5453400;26;19941;-63
2024/04/20 04:53:26;;;;;;;;;;;6.70;82.00;;;;;;5463157;26;19935;-63
2024/04/20 04:55:55;;;;;;;;;;;6.70;82.00;;;;;;5456640;26;20004;-64
2024/04/20 04:58:24;;;;;;;;;;;6.70;81.90;;;;;;5457453;26;19928;-63
2024/04/20 05:00:53;;;;;;;;;;;6.70;81.90;;;;;;5454998;26;20531;-63
2024/04/20 05:03:24;;;;;;;;;;;6.70;81.90;;;;;;5458439;26;19928;-64
2024/04/20 05:05:53;;;;;;;;;;;6.80;81.80;;;;;;5465011;26;19947;-63
2024/04/20 05:08:26;;;;;;;;;;;6.80;81.80;;;;;;5456219;26;19935;-64
2024/04/20 05:10:55;;;;;;;;;;;6.80;81.70;;;;;;5457867;26;20641;-63
2024/04/20 05:13:24;;;;;;;;;;;6.90;81.60;;;;;;5460623;26;19940;-66
2024/04/20 05:15:52;;;;;;;;;;;6.90;81.50;;;;;;5461155;26;19935;-66
2024/04/20 05:18:25;;;;;;;;;;;6.90;81.40;;;;;;5458807;26;19929;-66
2024/04/20 05:20:54;;;;;;;;;;;6.90;81.40;;;;;;5451610;26;19936;-65
2024/04/20 05:26:35;;;;;;;;;;;6.80;81.20;;;;;;5455159;26;19939;-66
2024/04/20 05:29:04;;;;;;;;;;;6.90;81.20;;;;;;5459091;26;19943;-65
2024/04/20 05:31:33;;;;;;;;;;;6.90;80.90;;;;;;5459286;26;19928;-66
2024/04/20 05:34:04;;;;;;;;;;;6.90;80.90;;;;;;5459067;26;20478;-66
2024/04/20 05:36:33;;;;;;;;;;;6.90;80.70;;;;;;5450014;26;19939;-66
2024/04/20 05:39:02;;;;;;;;;;;7.00;80.40;;;;;;5463026;26;20408;-66
2024/04/20 05:41:31;;;;;;;;;;;6.90;80.30;;;;;;5455709;26;19943;-66
2024/04/20 05:44:00;;;;;;;;;;;7.00;80.10;;;;;;5458630;26;19928;-66
2024/04/20 05:46:28;;;;;;;;;;;7.00;80.10;;;;;;5457320;26;20270;-65
2024/04/20 05:48:57;;;;;;;;;;;7.00;79.80;;;;;;5459805;26;19936;-66
2024/04/20 05:51:28;;;;;;;;;;;7.00;79.80;;;;;;5454948;26;19928;-66
2024/04/20 05:53:57;;;;;;;;;;;7.10;79.70;;;;;;5456821;26;20381;-67
2024/04/20 05:56:26;;;;;;;;;;;7.00;79.10;;;;;;5457926;26;19940;-64
2024/04/20 05:58:55;;;;;;;;;;;7.00;78.80;;;;;;5461065;26;19956;-66
2024/04/20 06:01:23;;;;;;;;;;;7.00;78.80;;;;;;5461423;26;19928;-66
2024/04/20 06:03:59;;;;;;;;;;;7.00;78.70;;;;;;5452419;26;20647;-66
2024/04/20 06:06:31;;;;;;;;;;;7.10;78.50;;;;;;5455842;26;20406;-66
2024/04/20 06:08:59;;;;;;;;;;;7.10;78.50;;;;;;5453799;26;19943;-66
2024/04/20 06:11:28;;;;;;;;;;;7.10;78.60;;;;;;5455434;26;19965;-65
2024/04/20 06:13:57;;;;;;;;;;;7.10;78.40;;;;;;5457373;26;19936;-67
2024/04/20 06:16:25;;;;;;;;;;;7.20;78.50;;;;;;5458594;26;19935;-66
2024/04/20 06:18:54;;;;;;;;;;;7.20;78.60;;;;;;5459086;26;19928;-66
2024/04/20 06:21:22;;;;;;;;;;;7.30;78.50;;;;;;5461384;26;20005;-66
2024/04/20 06:23:54;;;;;;;;;;;7.40;78.40;;;;;;5461739;26;19932;-66
2024/04/20 06:26:23;;;;;;;;;;;7.40;78.10;;;;;;5459575;26;19928;-66
2024/04/20 06:28:52;;;;;;;;;;;7.40;78.10;;;;;;5458375;26;20368;-66
2024/04/20 06:31:36;;;;;;;;;;;7.40;77.80;;;;;;5450404;26;19929;-66
2024/04/20 06:34:05;;;;;;;;;;;7.40;77.50;;;;;;5454663;26;20356;-66
2024/04/20 06:36:34;;;;;;;;;;;7.50;77.40;;;;;;5454575;26;19939;-66
2024/04/20 06:39:05;;;;;;;;;;;7.70;76.80;;;;;;5446072;26;19964;-66
2024/04/20 06:41:34;;;;;;;;;;;7.90;76.10;;;;;;5451268;26;19935;-66
2024/04/20 06:44:03;;;;;;;;;;;8.10;75.80;;;;;;5455315;26;19961;-66
2024/04/20 06:46:31;;;;;;;;;;;8.30;74.30;;;;;;5458375;26;19971;-66
2024/04/20 06:49:01;;;;;;;;;;;8.50;73.90;;;;;;5456575;26;20007;-67
2024/04/20 06:51:30;;;;;;;;;;;8.60;72.90;;;;;;5458766;26;20019;-65
2024/04/20 06:53:59;;;;;;;;;;;8.60;72.60;;;;;;5453344;26;19929;-67
2024/04/20 07:00:07;;;;;;;;;;;8.60;72.30;;;;;;5451861;26;19935;-68
2024/04/20 07:02:36;;;;;;;;;;;8.40;72.10;;;;;;5462401;26;19939;-67
2024/04/20 07:05:06;;;;;;;;;;;8.20;72.50;;;;;;5464564;26;19935;-67
2024/04/20 07:07:35;;;;;;;;;;;8.10;72.50;;;;;;5465517;26;19965;-67
2024/04/20 07:10:04;;;;;;;;;;;8.10;72.10;;;;;;5456517;26;19936;-67
2024/04/20 07:12:48;;;;;;;;;;;8.20;71.90;;;;;;5463278;26;19935;-67
2024/04/20 07:15:54;;;;;;;;;;;8.20;71.70;;;;;;5451786;26;19936;-67
2024/04/20 07:18:22;;;;;;;;;;;8.20;71.30;;;;;;5466664;26;19928;-67
2024/04/20 07:20:51;;;;;;;;;;;8.30;70.80;;;;;;5458489;26;19935;-67
2024/04/20 07:23:20;;;;;;;;;;;8.60;69.80;;;;;;5464081;26;19935;-68
2024/04/20 07:25:48;;;;;;;;;;;8.60;69.10;;;;;;5454740;26;19929;-67
2024/04/20 07:28:17;;;;;;;;;;;8.90;68.50;;;;;;5460339;26;19939;-67
2024/04/20 07:30:46;;;;;;;;;;;9.40;68.10;;;;;;5459600;26;19928;-68
2024/04/20 07:33:17;;;;;;;;;;;9.70;67.50;;;;;;5456283;26;19929;-68
2024/04/20 07:35:45;;;;;;;;;;;9.90;66.80;;;;;;5461781;26;20018;-67
2024/04/20 07:38:14;;;;;;;;;;;9.70;64.90;;;;;;5407975;26;20323;-67
2024/04/20 07:40:43;;;;;;;;;;;9.70;65.00;;;;;;5417862;26;19938;-67
2024/04/20 07:43:11;;;;;;;;;;;9.70;64.80;;;;;;5423319;26;20378;-66
2024/04/20 07:45:40;;;;;;;;;;;9.70;63.80;;;;;;5423899;26;20553;-67
2024/04/20 07:48:09;;;;;;;;;;;10.10;62.70;;;;;;5426521;26;19940;-68
2024/04/20 07:54:19;;;;;;;;;;;10.50;61.10;;;;;;5425755;26;19936;-68
2024/04/20 07:56:48;;;;;;;;;;;10.70;60.40;;;;;;5422759;26;19962;-68
2024/04/20 07:59:17;;;;;;;;;;;10.70;60.20;;;;;;5427860;26;19929;-68
2024/04/20 08:01:46;;;;;;;;;;;10.60;60.30;;;;;;5428156;26;19929;-68
2024/04/20 08:04:14;;;;;;;;;;;10.50;61.10;;;;;;5428202;26;19932;-68
2024/04/20 08:06:43;;;;;;;;;;;10.70;61.30;;;;;;5427131;26;19939;-68
2024/04/20 08:09:12;;;;;;;;;;;10.90;59.70;;;;;;5426215;26;19929;-69
2024/04/20 08:11:44;;;;;;;;;;;11.30;59.80;;;;;;5429038;26;20022;-68
2024/04/20 08:14:12;;;;;;;;;;;11.60;59.20;;;;;;5420464;26;19940;-69
2024/04/20 08:16:41;;;;;;;;;;;11.80;58.70;;;;;;5426662;26;20355;-68
2024/04/20 08:19:10;;;;;;;;;;;11.90;58.90;;;;;;5425150;26;19936;-67
2024/04/20 08:21:38;;;;;;;;;;;12.20;57.70;;;;;;5424000;26;20321;-68
2024/04/20 08:24:07;;;;;;;;;;;12.20;56.00;;;;;;5423253;26;19945;-68
2024/04/20 08:26:36;;;;;;;;;;;12.10;54.80;;;;;;5428269;26;19957;-69
2024/04/20 08:29:07;;;;;;;;;;;12.10;53.70;;;;;;5424035;26;19960;-68
2024/04/20 08:31:36;;;;;;;;;;;12.00;53.10;;;;;;5422820;26;19957;-68
2024/04/20 08:34:05;;;;;;;;;;;11.80;54.00;;;;;;5425008;26;19936;-68
2024/04/20 08:36:34;;;;;;;;;;;11.70;55.20;;;;;;5423412;26;20347;-67
2024/04/20 08:39:03;;;;;;;;;;;11.50;55.00;;;;;;5424879;26;20050;-68
2024/04/20 08:41:35;;;;;;;;;;;11.50;55.50;;;;;;5424814;26;19929;-63
2024/04/20 08:44:03;;;;;;;;;;;11.30;55.80;;;;;;5426120;26;19928;-62
2024/04/20 08:46:35;;;;;;;;;;;11.30;57.20;;;;;;5422937;26;19945;-62
2024/04/20 08:49:07;;;;;;;;;;;11.20;57.20;;;;;;5426583;26;19933;-61
2024/04/20 08:51:33;;;;;;;;;;;11.20;56.60;;;;;;5426594;26;20418;-62
2024/04/20 08:54:05;;;;;;;;;;;11.10;57.00;;;;;;5427058;26;19998;-63
2024/04/20 08:56:35;;;;;;;;;;;11.10;57.50;;;;;;5426650;26;19933;-61
2024/04/20 08:59:04;;;;;;;;;;;11.10;57.90;;;;;;5423143;26;19929;-62
2024/04/20 09:01:36;;;;;;;;;;;11.10;58.00;;;;;;5423262;26;19929;-62
2024/04/20 09:04:06;;;;;;;;;;;11.00;58.30;;;;;;5420196;26;19944;-62
2024/04/20 09:06:35;;;;;;;;;;;11.00;58.50;;;;;;5419566;26;19930;-62
2024/04/20 09:09:05;;;;;;;;;;;11.10;58.90;;;;;;5418357;26;19929;-61
2024/04/20 09:11:34;;;;;;;;;;;11.10;58.80;;;;;;5420457;26;19964;-62
2024/04/20 09:14:02;;;;;;;;;;;11.00;58.40;;;;;;5425724;26;19932;-62
2024/04/20 09:16:32;;;;;;;;;;;11.00;58.50;;;;;;5423202;26;19929;-61
2024/04/20 09:19:06;;;;;;;;;;;11.00;58.50;;;;;;5414895;26;19929;-62
2024/04/20 09:21:32;;;;;;;;;;;10.90;57.50;;;;;;5424440;26;20554;-62
2024/04/20 09:24:05;;;;;;;;;;;10.90;58.10;;;;;;5413086;26;19929;-63
2024/04/20 09:26:34;;;;;;;;;;;10.90;57.50;;;;;;5422352;26;19933;-62
2024/04/20 09:29:03;;;;;;;;;;;11.00;57.60;;;;;;5424950;26;19935;-62
2024/04/20 09:31:32;;;;;;;;;;;11.20;56.80;;;;;;5423116;26;20031;-61
2024/04/20 09:34:02;;;;;;;;;;;11.50;56.50;;;;;;5424527;26;19929;-63
2024/04/20 09:36:33;;;;;;;;;;;11.70;56.80;;;;;;5426995;26;19945;-63
2024/04/20 09:39:04;;;;;;;;;;;11.80;56.30;;;;;;5416198;26;19928;-63
2024/04/20 09:41:33;;;;;;;;;;;12.00;56.00;;;;;;5417131;26;19929;-62
2024/04/20 09:44:04;;;;;;;;;;;12.10;56.20;;;;;;5419154;26;20352;-62
2024/04/20 09:46:34;;;;;;;;;;;12.20;56.30;;;;;;5419973;26;19936;-63
2024/04/20 09:49:07;;;;;;;;;;;12.40;56.40;;;;;;5426633;26;19937;-62
2024/04/20 09:51:41;;;;;;;;;;;12.30;56.80;;;;;;5446325;26;21090;-60
2024/04/20 09:54:15;;;;;;;;;;;12.10;56.80;;;;;;5461435;26;19928;-61
2024/04/20 09:56:45;;;;;;;;;;;11.90;56.60;;;;;;5458112;26;20370;-61
2024/04/20 09:59:14;;;;;;;;;;;11.70;56.90;;;;;;5457604;26;19928;-60
2024/04/20 10:01:43;;;;;;;;;;;11.50;57.50;;;;;;5459446;26;19929;-60
2024/04/20 10:04:13;;;;;;;;;;;11.50;58.00;;;;;;5456722;26;19936;-61
2024/04/20 10:06:45;;;;;;;;;;;11.60;57.90;;;;;;5454639;26;19929;-61
2024/04/20 10:09:14;;;;;;;;;;;11.70;57.70;;;;;;5458898;26;19944;-60
2024/04/20 10:11:43;;;;;;;;;;;11.80;57.80;;;;;;5459465;26;19935;-61
2024/04/20 10:14:12;;;;;;;;;;;11.80;58.00;;;;;;5454862;26;19928;-61
2024/04/20 10:16:42;;;;;;;;;;;11.80;58.30;;;;;;5454648;26;19944;-60
2024/04/20 10:19:11;;;;;;;;;;;11.80;59.00;;;;;;5459784;26;19943;-59
2024/04/20 10:21:41;;;;;;;;;;;11.80;59.00;;;;;;5457823;26;19966;-61
2024/04/20 10:24:13;;;;;;;;;;;11.70;58.40;;;;;;5461844;26;20000;-60
2024/04/20 10:26:47;;;;;;;;;;;11.70;59.00;;;;;;5459273;26;20000;-60
2024/04/20 10:29:21;;;;;;;;;;;11.60;59.00;;;;;;5441348;26;19940;-59
2024/04/20 10:31:58;;;;;;;;;;;11.70;58.90;;;;;;5454621;26;19995;-59
2024/04/20 10:34:27;;;;;;;;;;;11.80;58.20;;;;;;5458875;26;19936;-59
2024/04/20 10:36:58;;;;;;;;;;;11.90;57.70;;;;;;5459278;26;19935;-60
2024/04/20 10:39:32;;;;;;;;;;;11.90;57.50;;;;;;5455575;26;19928;-60
2024/04/20 10:42:07;;;;;;;;;;;11.90;57.40;;;;;;5460634;26;20021;-61
2024/04/20 10:47:39;;;;;;;;;;;11.80;56.90;;;;;;5400608;26;19965;-60
2024/04/20 10:50:08;;;;;;;;;;;11.70;56.40;;;;;;5453028;26;20267;-60
2024/04/20 10:52:36;;;;;;;;;;;11.60;57.00;;;;;;5457950;26;20353;-61
2024/04/20 10:55:16;;;;;;;;;;;11.60;56.10;;;;;;5457011;26;20378;-60
2024/04/20 15:02:29;;;;;;;;;;;12.80;51.60;;;;;;5438820;26;19938;-64
2024/04/20 15:04:57;;;;;;;;;;;12.80;51.50;;;;;;5461664;26;19935;-63
2024/04/20 15:07:26;;;;;;;;;;;12.90;51.60;;;;;;5456449;26;19936;-63
2024/04/20 15:09:55;;;;;;;;;;;12.90;52.20;;;;;;5459786;26;19930;-61
2024/04/20 15:12:23;;;;;;;;;;;13.00;51.60;;;;;;5454422;26;20001;-62
2024/04/20 15:14:52;;;;;;;;;;;12.90;51.10;;;;;;5456184;26;19948;-63
2024/04/20 15:17:21;;;;;;;;;;;12.90;51.10;;;;;;5462713;26;22275;-63
2024/04/20 15:19:52;;;;;;;;;;;12.90;50.70;;;;;;5466410;26;19936;-63
2024/04/20 15:22:21;;;;;;;;;;;12.90;50.80;;;;;;5463192;26;19929;-62
2024/04/20 15:24:50;;;;;;;;;;;12.90;51.30;;;;;;5466989;26;19928;-63
2024/04/20 15:27:19;;;;;;;;;;;12.90;52.00;;;;;;5447550;26;19937;-62
2024/04/20 15:29:47;;;;;;;;;;;12.90;51.70;;;;;;5448386;26;20050;-63
2024/04/20 15:32:16;;;;;;;;;;;12.80;51.80;;;;;;5443073;26;20255;-63
2024/04/20 15:34:45;;;;;;;;;;;12.80;51.90;;;;;;5457649;26;19997;-63
2024/04/20 15:37:16;;;;;;;;;;;12.80;52.30;;;;;;5457829;26;20407;-63
2024/04/20 15:39:45;;;;;;;;;;;12.80;51.90;;;;;;5455358;26;19940;-63
2024/04/20 15:42:14;;;;;;;;;;;12.80;52.20;;;;;;5453317;26;19929;-66
2024/04/20 15:44:43;;;;;;;;;;;12.80;52.70;;;;;;5460577;26;19964;-67
2024/04/20 15:47:12;;;;;;;;;;;12.90;53.30;;;;;;5455813;26;20241;-67
2024/04/20 15:49:38;;;;;;;;;;;12.80;52.90;;;;;;5461200;26;19940;-67
2024/04/20 15:52:07;;;;;;;;;;;12.90;54.40;;;;;;5460738;26;19964;-67
2024/04/20 15:54:38;;;;;;;;;;;12.80;55.20;;;;;;5461057;26;19929;-68
2024/04/20 15:57:09;;;;;;;;;;;12.70;55.70;;;;;;5457579;26;19928;-67
2024/04/20 15:59:38;;;;;;;;;;;12.70;56.50;;;;;;5462970;26;20497;-67
2024/04/20 16:02:07;;;;;;;;;;;12.60;56.70;;;;;;5458803;26;19981;-67
2024/04/20 16:04:35;;;;;;;;;;;12.50;57.10;;;;;;5464726;26;19928;-66
2024/04/20 16:07:04;;;;;;;;;;;12.60;57.60;;;;;;5462548;26;19935;-67
2024/04/20 16:09:33;;;;;;;;;;;12.40;58.10;;;;;;5460141;26;19937;-67
2024/04/20 16:12:04;;;;;;;;;;;12.40;58.80;;;;;;5452376;26;19941;-67
2024/04/20 16:14:33;;;;;;;;;;;12.40;59.70;;;;;;5456212;26;19928;-67
2024/04/20 16:17:02;;;;;;;;;;;12.40;60.90;;;;;;5452531;26;19997;-67
2024/04/20 16:19:30;;;;;;;;;;;12.30;61.80;;;;;;5460385;26;19928;-67
2024/04/20 16:21:59;;;;;;;;;;;12.20;62.60;;;;;;5461473;26;19964;-67
2024/04/20 16:24:28;;;;;;;;;;;12.20;63.40;;;;;;5459111;26;19936;-67
2024/04/20 16:26:56;;;;;;;;;;;12.10;64.00;;;;;;5452766;26;19933;-68
2024/04/20 16:29:27;;;;;;;;;;;12.00;64.80;;;;;;5456288;26;19968;-67
2024/04/20 16:31:56;;;;;;;;;;;11.90;65.10;;;;;;5462475;26;19928;-67
2024/04/20 16:34:25;;;;;;;;;;;11.90;65.40;;;;;;5459267;26;19929;-67
2024/04/20 16:36:54;;;;;;;;;;;11.90;65.60;;;;;;5463196;26;20360;-67
2024/04/20 16:39:23;;;;;;;;;;;11.90;65.70;;;;;;5461263;26;20022;-67
2024/04/20 16:41:51;;;;;;;;;;;11.90;65.90;;;;;;5456252;26;20267;-66
2024/04/20 16:44:20;;;;;;;;;;;12.00;66.20;;;;;;5458475;26;20012;-67
2024/04/20 16:46:52;;;;;;;;;;;12.10;66.30;;;;;;5461506;26;20460;-66
2024/04/20 16:49:18;;;;;;;;;;;12.20;66.40;;;;;;5461610;26;19935;-67
2024/04/20 16:51:47;;;;;;;;;;;12.20;66.40;;;;;;5461135;26;19936;-64
2024/04/20 16:54:13;;;;;;;;;;;12.30;66.30;;;;;;5452594;26;20332;-65
2024/04/20 16:56:42;;;;;;;;;;;12.30;66.20;;;;;;5456775;26;19938;-63
2024/04/20 16:59:08;;;;;;;;;;;12.30;66.20;;;;;;5461278;26;19939;-64
2024/04/20 17:01:36;;;;;;;;;;;12.30;65.60;;;;;;5451287;26;19964;-64
2024/04/20 17:04:05;;;;;;;;;;;12.20;63.40;;;;;;5458918;26;20401;-64
2024/04/20 17:06:34;;;;;;;;;;;12.10;62.70;;;;;;5461199;26;19996;-64
2024/04/20 17:09:00;;;;;;;;;;;12.10;61.90;;;;;;5459183;26;20374;-64
2024/04/20 17:11:29;;;;;;;;;;;11.90;61.80;;;;;;5456206;26;19943;-64
2024/04/20 17:13:55;;;;;;;;;;;11.90;62.10;;;;;;5452742;26;19978;-64
2024/04/20 17:16:23;;;;;;;;;;;11.70;61.80;;;;;;5451622;26;19935;-64
2024/04/20 17:18:50;;;;;;;;;;;11.60;61.40;;;;;;5461657;26;19928;-65
2024/04/20 17:21:23;;;;;;;;;;;11.60;61.90;;;;;;5451925;26;20262;-64
2024/04/20 17:23:50;;;;;;;;;;;11.50;62.30;;;;;;5452511;26;19928;-63
2024/04/20 17:26:22;;;;;;;;;;;11.40;63.00;;;;;;5458356;26;19928;-64
2024/04/20 17:28:49;;;;;;;;;;;11.30;63.20;;;;;;5446850;26;19940;-63
2024/04/20 17:31:18;;;;;;;;;;;11.30;63.40;;;;;;5438720;26;19927;-64
2024/04/20 17:33:44;;;;;;;;;;;11.10;63.60;;;;;;5449624;26;19928;-64
2024/04/20 17:36:14;;;;;;;;;;;11.10;63.90;;;;;;5436293;26;20279;-64
2024/04/20 17:38:43;;;;;;;;;;;11.10;64.10;;;;;;5439465;26;20022;-64
2024/04/20 17:41:13;;;;;;;;;;;11.00;64.20;;;;;;5443494;26;20267;-64
2024/04/20 17:43:40;;;;;;;;;;;11.00;63.90;;;;;;5445007;26;19977;-64
2024/04/20 17:46:09;;;;;;;;;;;10.90;63.90;;;;;;5450413;26;19966;-64
2024/04/20 17:48:36;;;;;;;;;;;10.70;63.90;;;;;;5459233;26;20437;-65
2024/04/20 17:51:05;;;;;;;;;;;10.70;64.00;;;;;;5459781;26;20040;-64
2024/04/20 17:53:31;;;;;;;;;;;10.60;64.20;;;;;;5437312;26;19928;-64
2024/04/20 17:56:05;;;;;;;;;;;10.60;64.50;;;;;;5443406;26;19993;-64
2024/04/20 17:58:31;;;;;;;;;;;10.60;64.80;;;;;;5447340;26;19928;-63
2024/04/20 18:01:00;;;;;;;;;;;10.50;65.10;;;;;;5448208;26;19928;-64
2024/04/20 18:03:27;;;;;;;;;;;10.50;65.10;;;;;;5453140;26;19928;-62
2024/04/20 18:05:56;;;;;;;;;;;10.40;65.20;;;;;;5450105;26;19928;-60
2024/04/20 18:08:22;;;;;;;;;;;10.40;65.20;;;;;;5458085;26;19997;-60
2024/04/20 18:10:51;;;;;;;;;;;10.40;65.50;;;;;;5457964;26;19931;-61
2024/04/20 18:13:22;;;;;;;;;;;10.30;65.30;;;;;;5449094;26;19932;-61
2024/04/20 18:15:51;;;;;;;;;;;10.20;65.60;;;;;;5457277;26;19928;-60
2024/04/20 18:18:17;;;;;;;;;;;10.20;65.90;;;;;;5461551;26;19976;-60
2024/04/20 18:20:46;;;;;;;;;;;10.20;66.20;;;;;;5436202;26;19939;-61
2024/04/20 18:23:12;;;;;;;;;;;10.10;66.60;;;;;;5453314;26;20011;-60
2024/04/20 18:25:40;;;;;;;;;;;10.10;66.90;;;;;;5437532;26;19936;-61
2024/04/20 18:28:06;;;;;;;;;;;10.00;67.40;;;;;;5458586;26;19935;-60
2024/04/20 18:30:44;;;;;;;;;;;10.00;67.60;;;;;;5446492;26;19929;-61
2024/04/20 18:33:12;;;;;;;;;;;9.90;67.80;;;;;;5458479;26;20319;-61
2024/04/20 18:35:41;;;;;;;;;;;9.80;67.70;;;;;;5463887;26;19961;-61
2024/04/20 18:38:07;;;;;;;;;;;9.80;67.90;;;;;;5461211;26;19928;-61
2024/04/20 18:40:36;;;;;;;;;;;9.70;68.10;;;;;;5464952;26;19935;-61
2024/04/20 18:43:02;;;;;;;;;;;9.70;68.20;;;;;;5462720;26;19935;-61
2024/04/20 18:45:31;;;;;;;;;;;9.70;68.50;;;;;;5465081;26;19976;-59
2024/04/20 18:48:00;;;;;;;;;;;9.60;68.80;;;;;;5455986;26;20317;-61
2024/04/20 18:50:29;;;;;;;;;;;9.60;69.10;;;;;;5449830;26;20294;-61
2024/04/20 18:52:55;;;;;;;;;;;9.50;69.30;;;;;;5459401;26;19935;-60
2024/04/20 18:55:23;;;;;;;;;;;9.40;69.70;;;;;;5454188;26;19929;-61
2024/04/20 18:57:49;;;;;;;;;;;9.40;69.80;;;;;;5445020;26;19969;-61
2024/04/20 19:00:18;;;;;;;;;;;9.40;69.90;;;;;;5459241;26;19961;-60
2024/04/20 19:02:44;;;;;;;;;;;9.30;70.30;;;;;;5445045;26;19934;-60
2024/04/20 19:05:16;;;;;;;;;;;9.20;70.50;;;;;;5450785;26;20367;-61
2024/04/20 19:07:42;;;;;;;;;;;9.20;70.60;;;;;;5440428;26;19927;-61
2024/04/20 19:10:11;;;;;;;;;;;9.20;70.80;;;;;;5437198;26;20328;-61
2024/04/20 19:12:37;;;;;;;;;;;9.10;71.00;;;;;;5442043;26;19960;-62